Time;durP1;ratioP1;P1;durP2;ratioP2;P2;SDS_P1;SDS_P2;PMS_P1;PMS_P2;Temp;Humidity;BMP_temperature;BMP_pressure;BME280_temperature;BME280_humidity;BME280_pressure;Samples;Min_cycle;Max_cycle;Signal;HPM_P1;HPM_P2
2022/10/02 00:01:31;;;;;;;6.05;2.05;;;;;;;13.49;46.96;101065.00;5009963;28;20477;-73
2022/10/02 00:04:01;;;;;;;8.25;1.77;;;;;;;13.47;46.55;101068.91;5023575;28;20109;-72
2022/10/02 00:06:41;;;;;;;7.00;2.05;;;;;;;13.51;47.74;101073.13;5006292;28;20580;-72
2022/10/02 00:09:19;;;;;;;7.50;2.10;;;;;;;13.50;47.47;101069.50;5007599;28;20068;-72
2022/10/02 00:11:50;;;;;;;6.45;1.92;;;;;;;13.50;47.08;101072.25;5017932;28;20061;-72
2022/10/02 00:14:22;;;;;;;5.10;1.70;;;;;;;13.51;47.59;101075.88;5038172;28;20577;-72
2022/10/02 00:16:53;;;;;;;8.38;2.00;;;;;;;13.48;47.39;101076.16;5027069;28;20076;-72
2022/10/02 00:19:21;;;;;;;6.32;1.88;;;;;;;13.49;47.05;101080.66;5026208;28;20475;-72
2022/10/02 00:22:01;;;;;;;6.45;2.00;;;;;;;13.53;47.99;101079.34;5026721;28;20053;-72
2022/10/02 00:24:38;;;;;;;5.30;1.77;;;;;;;13.54;48.52;101075.56;5014377;28;20041;-72
2022/10/02 00:27:17;;;;;;;5.00;1.80;;;;;;;13.53;48.29;101077.44;5027092;28;20051;-72
2022/10/02 00:29:49;;;;;;;8.25;1.90;;;;;;;13.53;48.02;101073.84;4999257;28;20144;-72
2022/10/02 00:32:28;;;;;;;5.22;1.88;;;;;;;13.54;48.33;101078.31;5025400;28;20045;-72
2022/10/02 00:35:22;;;;;;;5.57;1.70;;;;;;;13.52;48.64;101077.59;5027899;28;20509;-72
2022/10/02 00:37:58;;;;;;;7.40;2.08;;;;;;;13.55;48.42;101083.66;5007884;28;20491;-72
2022/10/02 00:41:07;;;;;;;7.60;2.15;;;;;;;13.52;48.83;101086.72;5022995;28;20515;-72
2022/10/02 00:43:43;;;;;;;5.63;1.90;;;;;;;13.54;48.20;101092.91;5023534;28;20469;-72
2022/10/02 00:46:28;;;;;;;7.72;2.00;;;;;;;13.57;49.27;101092.66;5009776;28;20057;-72
2022/10/02 00:49:09;;;;;;;7.90;2.10;;;;;;;13.58;48.74;101086.16;5008647;28;20056;-72
2022/10/02 00:51:50;;;;;;;5.55;1.88;;;;;;;13.60;48.91;101094.25;5022276;28;20054;-72
2022/10/02 00:54:46;;;;;;;7.95;2.15;;;;;;;13.61;49.13;101087.75;5018652;28;20046;-72
2022/10/02 00:57:27;;;;;;;7.05;1.90;;;;;;;13.61;49.11;101096.84;5017407;28;20586;-72
2022/10/02 01:00:04;;;;;;;5.43;1.60;;;;;;;13.65;49.54;101093.81;5013102;28;20045;-72
2022/10/02 01:02:51;;;;;;;5.35;1.70;;;;;;;13.66;49.83;101087.28;5030581;28;20201;-72
2022/10/02 01:05:20;;;;;;;5.90;1.83;;;;;;;13.63;48.91;101093.94;5015703;28;20056;-72
2022/10/02 01:07:52;;;;;;;7.90;2.22;;;;;;;13.67;48.92;101091.78;5038456;28;20082;-72
2022/10/02 01:10:24;;;;;;;8.18;2.10;;;;;;;13.67;49.08;101102.78;5029690;28;20072;-72
2022/10/02 01:12:55;;;;;;;8.98;1.95;;;;;;;13.68;49.33;101094.38;5012645;28;20563;-72
2022/10/02 01:15:30;;;;;;;9.73;2.17;;;;;;;13.71;49.54;101104.19;5035408;28;20060;-72
2022/10/02 01:18:00;;;;;;;5.63;2.00;;;;;;;13.70;49.34;101099.72;5024793;28;20048;-72
2022/10/02 01:20:36;;;;;;;6.20;1.80;;;;;;;13.74;49.62;101102.03;5028792;28;20041;-72
2022/10/02 01:23:27;;;;;;;10.38;2.30;;;;;;;13.73;49.92;101093.94;5022444;28;20045;-72
2022/10/02 01:25:58;;;;;;;5.85;1.80;;;;;;;13.74;49.32;101101.16;5028465;28;20041;-72
2022/10/02 01:28:26;;;;;;;6.07;1.88;;;;;;;13.75;48.93;101097.41;5030695;28;20060;-72
2022/10/02 01:30:59;;;;;;;7.80;1.90;;;;;;;13.77;49.40;101104.50;5027834;28;20091;-72
2022/10/02 01:33:27;;;;;;;7.93;2.20;;;;;;;13.77;49.49;101110.00;5030335;28;20559;-72
2022/10/02 01:35:55;;;;;;;6.13;1.77;;;;;;;13.78;49.66;101099.84;5030220;28;20560;-72
2022/10/02 01:38:24;;;;;;;6.93;2.40;;;;;;;13.80;49.29;101100.56;5011775;28;20510;-72
2022/10/02 01:40:52;;;;;;;8.65;2.20;;;;;;;13.79;49.74;101107.94;5020179;28;20046;-72
2022/10/02 01:43:25;;;;;;;10.15;2.15;;;;;;;13.84;50.03;101105.63;5025753;28;20383;-73
2022/10/02 01:46:15;;;;;;;7.50;1.95;;;;;;;13.85;50.47;101112.88;5029460;28;20045;-72
2022/10/02 01:48:47;;;;;;;7.97;1.90;;;;;;;13.85;50.31;101118.38;5032789;23;20064;-70
2022/10/02 01:51:49;;;;;;;6.50;1.70;;;;;;;13.83;50.42;101114.91;5036397;28;20140;-70
2022/10/02 01:54:24;;;;;;;6.03;1.65;;;;;;;13.87;50.00;101110.81;5041144;28;20045;-70
2022/10/02 01:57:02;;;;;;;9.02;2.40;;;;;;;13.89;50.18;101116.19;5009505;28;20045;-70
2022/10/02 01:59:45;;;;;;;7.15;1.80;;;;;;;13.91;50.49;101115.03;5029193;28;20041;-70
2022/10/02 02:02:17;;;;;;;;;;;;;;;13.62;50.34;101112.34;5028951;28;20045;-70
2022/10/02 02:04:53;;;;;;;5.53;2.22;;;;;;;13.89;50.41;101107.91;5025262;28;19925;-70
2022/10/02 02:07:36;;;;;;;5.80;1.90;;;;;;;13.94;50.45;101111.94;5042862;28;20413;-70
2022/10/02 02:10:41;;;;;;;8.45;1.90;;;;;;;13.93;50.12;101118.50;5020999;28;20045;-70
2022/10/02 02:13:14;;;;;;;5.85;1.90;;;;;;;13.94;50.33;101116.63;5023861;28;20510;-70
2022/10/02 02:15:47;;;;;;;;;;;;;;;13.67;50.85;101114.66;5027842;28;20041;-70
2022/10/02 02:18:21;;;;;;;;;;;;;;;13.62;50.56;101115.09;5028272;28;20285;-70
2022/10/02 02:21:02;;;;;;;3.63;1.52;;;;;;;13.92;50.22;101105.75;5024946;28;19922;-70
2022/10/02 02:23:34;;;;;;;5.00;1.80;;;;;;;13.97;50.34;101106.16;5009151;28;20048;-70
2022/10/02 02:26:05;;;;;;;6.67;2.23;;;;;;;13.96;49.54;101114.56;5027750;28;20481;-70
2022/10/02 02:28:36;;;;;;;9.10;2.60;;;;;;;13.99;50.12;101104.13;5015812;28;20291;-70
2022/10/02 02:31:08;;;;;;;7.22;2.55;;;;;;;14.00;50.05;101108.63;5020371;28;20065;-70
2022/10/02 02:33:41;;;;;;;9.23;2.22;;;;;;;13.99;50.12;101109.63;5010101;28;20362;-70
2022/10/02 02:36:14;;;;;;;4.93;1.80;;;;;;;14.00;49.93;101107.75;5019020;28;20121;-70
2022/10/02 02:38:46;;;;;;;8.40;2.08;;;;;;;14.02;49.98;101098.31;5012375;28;20068;-70
2022/10/02 02:41:16;;;;;;;8.57;2.40;;;;;;;14.03;49.92;101110.19;5019487;28;20054;-70
2022/10/02 02:43:48;;;;;;;8.05;2.47;;;;;;;14.05;50.22;101099.91;5027379;28;20041;-70
2022/10/02 02:46:23;;;;;;;6.27;2.00;;;;;;;14.06;50.88;101098.88;5014896;28;20077;-70
2022/10/02 02:48:55;;;;;;;7.47;2.05;;;;;;;14.07;50.31;101108.00;5008191;28;20038;-70
2022/10/02 02:51:30;;;;;;;9.17;2.00;;;;;;;14.06;50.17;101107.13;5008172;28;20080;-70
2022/10/02 02:54:03;;;;;;;7.50;2.03;;;;;;;14.09;50.70;101106.84;5007866;28;20045;-70
2022/10/02 02:56:33;;;;;;;9.30;2.22;;;;;;;14.09;50.30;101108.72;5011029;28;20417;-70
2022/10/02 02:59:05;;;;;;;7.20;1.92;;;;;;;14.10;50.02;101116.84;5017969;28;20149;-70
2022/10/02 03:01:34;;;;;;;6.85;2.42;;;;;;;14.10;50.19;101121.47;5024779;28;20069;-70
2022/10/02 03:04:02;;;;;;;9.18;2.40;;;;;;;14.10;50.21;101113.22;5028210;28;20098;-70
2022/10/02 03:06:34;;;;;;;7.80;2.13;;;;;;;14.14;50.62;101114.63;5008275;28;20137;-70
2022/10/02 03:09:05;;;;;;;7.82;2.35;;;;;;;14.13;50.49;101115.66;5019852;28;20061;-70
2022/10/02 03:11:47;;;;;;;7.75;2.08;;;;;;;14.17;50.82;101119.84;5017600;28;20052;-70
2022/10/02 03:14:42;;;;;;;4.53;1.70;;;;;;;14.16;51.29;101104.34;5011223;28;20049;-70
2022/10/02 03:17:22;;;;;;;7.80;2.10;;;;;;;14.17;50.89;101109.72;5027286;28;20103;-71
2022/10/02 03:19:56;;;;;;;6.38;1.63;;;;;;;14.17;50.55;101108.84;5015990;28;20087;-70
2022/10/02 03:22:34;;;;;;;9.70;2.60;;;;;;;14.20;50.54;101106.63;5026803;28;20457;-70
2022/10/02 03:25:08;;;;;;;9.35;2.60;;;;;;;14.21;51.35;101102.00;5016787;28;20160;-70
2022/10/02 03:27:42;;;;;;;7.65;2.00;;;;;;;14.20;50.81;101100.25;5011622;28;20045;-70
2022/10/02 03:30:12;;;;;;;8.82;2.28;;;;;;;14.21;50.45;101108.38;5028671;28;20053;-69
2022/10/02 03:32:45;;;;;;;8.38;2.72;;;;;;;14.23;50.79;101117.34;5020843;28;20545;-70
2022/10/02 03:35:15;;;;;;;5.68;1.90;;;;;;;14.21;50.91;101127.63;5010689;28;20121;-69
2022/10/02 03:37:46;;;;;;;4.90;1.50;;;;;;;14.23;50.68;101120.09;5028293;28;20136;-70
2022/10/02 03:40:14;;;;;;;3.57;1.40;;;;;;;14.18;50.53;101125.22;5018515;28;20059;-70
2022/10/02 03:42:42;;;;;;;4.07;1.80;;;;;;;14.21;50.65;101132.28;5016643;28;20533;-70
2022/10/02 03:45:10;;;;;;;4.35;1.20;;;;;;;14.19;50.74;101126.06;5008899;28;20049;-70
2022/10/02 03:48:00;;;;;;;5.45;1.63;;;;;;;14.19;50.59;101126.06;5028161;28;20327;-69
2022/10/02 03:50:28;;;;;;;4.68;1.48;;;;;;;14.16;50.18;101118.09;5013057;28;20052;-70
2022/10/02 03:53:06;;;;;;;4.75;1.45;;;;;;;14.13;50.50;101113.75;5021993;28;20065;-70
2022/10/02 03:55:38;;;;;;;2.72;1.30;;;;;;;14.13;50.76;101121.16;5033324;28;20050;-70
2022/10/02 03:58:13;;;;;;;5.78;1.30;;;;;;;14.11;51.15;101113.03;5018374;28;20073;-69
2022/10/02 04:00:49;;;;;;;2.97;1.20;;;;;;;14.11;50.85;101112.16;5014428;28;20485;-69
2022/10/02 04:03:25;;;;;;;4.32;1.23;;;;;;;14.10;50.86;101125.09;5020820;28;20053;-69
2022/10/02 04:05:59;;;;;;;2.95;1.40;;;;;;;14.10;51.20;101118.72;5020427;28;20096;-69
2022/10/02 04:08:32;;;;;;;3.20;1.33;;;;;;;14.09;50.94;101117.84;5027857;28;20041;-69
2022/10/02 04:11:06;;;;;;;2.75;1.20;;;;;;;14.07;51.02;101108.88;5016456;28;20050;-69
2022/10/02 04:13:39;;;;;;;3.33;1.10;;;;;;;14.08;51.25;101118.00;5016783;28;20042;-69
2022/10/02 04:16:13;;;;;;;;;;;;;;;13.79;51.57;101118.09;5034778;28;20132;-69
2022/10/02 04:18:51;;;;;;;5.22;1.10;;;;;;;14.04;51.47;101114.66;5026741;28;19936;-69
2022/10/02 04:21:29;;;;;;;4.05;1.30;;;;;;;14.07;51.25;101119.00;5014592;28;20058;-69
2022/10/02 04:24:05;;;;;;;3.20;1.20;;;;;;;14.07;51.28;101116.25;5013624;28;20049;-69
2022/10/02 04:26:37;;;;;;;4.18;1.15;;;;;;;14.07;50.93;101116.25;5026826;28;20532;-69
2022/10/02 04:29:15;;;;;;;3.77;1.30;;;;;;;14.06;51.71;101120.91;5014003;28;20037;-69
2022/10/02 04:31:44;;;;;;;5.78;1.63;;;;;;;14.06;50.83;101111.78;5029113;28;20054;-69
2022/10/02 04:34:14;;;;;;;5.38;1.63;;;;;;;14.08;51.40;101121.63;5026254;28;20131;-69
2022/10/02 04:36:58;;;;;;;3.72;1.42;;;;;;;14.09;52.07;101128.88;5010233;28;20142;-69
2022/10/02 04:39:54;;;;;;;7.72;1.60;;;;;;;14.07;52.26;101138.28;5021664;28;20058;-69
2022/10/02 04:42:34;;;;;;;6.15;2.03;;;;;;;14.08;52.13;101138.13;5010134;28;20414;-69
2022/10/02 04:45:16;;;;;;;5.22;1.70;;;;;;;14.09;52.00;101133.50;5014086;28;20681;-69
2022/10/02 04:48:14;;;;;;;6.22;1.50;;;;;;;14.08;52.42;101129.88;5030746;28;20050;-69
2022/10/02 04:50:51;;;;;;;4.20;1.25;;;;;;;14.08;52.35;101129.00;5028793;28;20046;-69
2022/10/02 04:53:37;;;;;;;6.10;1.60;;;;;;;14.10;52.49;101135.25;5040671;28;20049;-68
2022/10/02 04:56:35;;;;;;;4.82;1.70;;;;;;;14.06;52.53;101139.28;5029559;28;20045;-69
2022/10/02 04:59:13;;;;;;;5.55;1.58;;;;;;;14.08;51.93;101143.63;5031011;28;20558;-69
2022/10/02 05:01:58;;;;;;;5.28;1.60;;;;;;;14.09;52.25;101133.50;5016590;28;20060;-69
2022/10/02 05:04:46;;;;;;;4.65;1.40;;;;;;;14.07;52.75;101136.41;5017121;28;20057;-69
2022/10/02 05:07:35;;;;;;;5.30;1.73;;;;;;;14.06;52.39;101137.41;5045160;28;20098;-70
2022/10/02 05:10:18;;;;;;;7.57;1.63;;;;;;;14.08;52.54;101137.25;5030002;28;20063;-68
2022/10/02 05:12:59;;;;;;;5.60;1.90;;;;;;;14.08;52.77;101146.38;5025673;28;20345;-69
2022/10/02 05:15:40;;;;;;;4.15;1.50;;;;;;;14.08;52.83;101145.53;5029672;28;20045;-69
2022/10/02 05:18:22;;;;;;;4.90;1.73;;;;;;;14.08;52.31;101160.16;5037974;28;20357;-69
2022/10/02 05:20:56;;;;;;;;;;;;;;;13.78;53.09;101157.59;5010746;28;20406;-69
2022/10/02 05:23:40;;;;;;;4.55;1.73;;;;;;;14.06;52.69;101161.31;5010705;28;20264;-70
2022/10/02 05:26:41;;;;;;;5.32;1.85;;;;;;;14.06;53.05;101153.06;5009880;28;20469;-69
2022/10/02 05:29:31;;;;;;;5.20;1.67;;;;;;;14.06;53.01;101145.66;5023118;28;20068;-69
2022/10/02 05:32:15;;;;;;;5.03;2.00;;;;;;;14.08;52.65;101168.41;5009818;28;20193;-69
2022/10/02 05:35:00;;;;;;;5.15;1.67;;;;;;;14.08;52.55;101160.16;5019406;28;20533;-70
2022/10/02 05:37:42;;;;;;;5.00;1.65;;;;;;;14.08;52.74;101146.38;5016906;28;20136;-70
2022/10/02 05:40:20;;;;;;;4.43;1.90;;;;;;;14.06;53.02;101137.41;5027076;28;20052;-70
2022/10/02 05:42:58;;;;;;;4.68;1.65;;;;;;;14.09;53.03;101156.38;5025117;28;20043;-70
2022/10/02 05:45:29;;;;;;;7.45;1.70;;;;;;;14.07;52.16;101155.66;5024724;28;20053;-71
2022/10/02 05:48:06;;;;;;;4.43;1.38;;;;;;;14.09;53.29;101147.25;5030283;28;20471;-70
2022/10/02 05:50:36;;;;;;;5.35;1.42;;;;;;;14.07;52.69;101147.41;5016233;28;20124;-68
2022/10/02 05:53:10;;;;;;;4.15;1.23;;;;;;;14.09;53.02;101161.88;5022414;28;20038;-68
2022/10/02 05:55:46;;;;;;;3.65;1.35;;;;;;;14.09;53.26;101150.88;5009641;28;20066;-67
2022/10/02 05:58:19;;;;;;;4.43;1.50;;;;;;;14.09;52.54;101158.28;5023762;28;20044;-68
2022/10/02 06:00:56;;;;;;;6.20;1.90;;;;;;;14.09;52.67;101156.38;5021472;28;20087;-68
2022/10/02 06:03:31;;;;;;;5.35;2.00;;;;;;;14.08;52.78;101153.78;5010129;28;20045;-69
2022/10/02 06:06:02;;;;;;;7.18;2.92;;;;;;;14.08;52.96;101165.66;5009751;28;20413;-70
2022/10/02 06:08:34;;;;;;;5.25;1.80;;;;;;;14.09;52.68;101172.03;5029803;28;20045;-69
2022/10/02 06:11:10;;;;;;;6.63;1.92;;;;;;;14.07;53.01;101174.94;5019650;28;20079;-69
2022/10/02 06:13:45;;;;;;;8.05;2.05;;;;;;;14.10;53.33;101190.28;5023484;28;20076;-69
2022/10/02 06:16:19;;;;;;;6.45;2.00;;;;;;;14.10;53.21;101193.03;5015323;28;20056;-70
2022/10/02 06:18:52;;;;;;;4.93;2.00;;;;;;;14.09;52.48;101197.66;5029626;28;20380;-69
2022/10/02 06:21:31;;;;;;;4.93;2.00;;;;;;;14.11;53.16;101192.00;5016158;28;20069;-69
2022/10/02 06:24:04;;;;;;;5.55;2.00;;;;;;;14.10;53.28;101196.66;5031465;28;20145;-68
2022/10/02 06:26:41;;;;;;;6.93;2.20;;;;;;;14.12;53.54;101191.84;5016853;28;20050;-68
2022/10/02 06:29:16;;;;;;;5.05;1.70;;;;;;;14.12;53.06;101193.72;5028118;28;20410;-68
2022/10/02 06:32:02;;;;;;;5.45;1.80;;;;;;;14.14;53.23;101199.97;5028906;28;20077;-68
2022/10/02 06:34:30;;;;;;;4.25;1.67;;;;;;;14.11;52.63;101198.38;5010588;28;20050;-70
2022/10/02 06:37:25;;;;;;;5.13;1.83;;;;;;;14.15;53.87;101204.44;5022419;28;20072;-68
2022/10/02 06:40:12;;;;;;;4.55;1.70;;;;;;;14.17;53.24;101199.69;4987187;28;20141;-68
2022/10/02 06:42:51;;;;;;;4.50;2.00;;;;;;;14.19;53.75;101209.50;5035437;28;20057;-69
2022/10/02 06:45:26;;;;;;;6.65;2.30;;;;;;;14.20;53.32;101204.84;5010914;28;20561;-68
2022/10/02 06:48:05;;;;;;;5.68;1.83;;;;;;;14.22;53.66;101205.59;5008200;28;20085;-68
2022/10/02 06:50:43;;;;;;;4.80;1.70;;;;;;;14.24;53.97;101214.56;5030353;28;20056;-70
2022/10/02 06:53:33;;;;;;;5.13;2.25;;;;;;;14.27;53.88;101217.88;5025089;28;20038;-70
2022/10/02 06:56:15;;;;;;;5.40;1.70;;;;;;;14.29;53.35;101220.47;5027055;28;20056;-69
2022/10/02 06:59:03;;;;;;;5.20;2.10;;;;;;;14.28;53.88;101210.47;5015947;28;20422;-70
2022/10/02 07:01:43;;;;;;;6.45;1.88;;;;;;;14.31;53.68;101221.22;5013687;28;20046;-70
2022/10/02 07:04:25;;;;;;;5.40;1.63;;;;;;;14.33;53.23;101221.94;5024472;28;20411;-70
2022/10/02 07:07:04;;;;;;;5.22;1.83;;;;;;;14.36;53.29;101229.88;5009684;28;20041;-70
2022/10/02 07:09:43;;;;;;;4.95;1.70;;;;;;;14.38;53.28;101233.34;5023347;28;20038;-70
2022/10/02 07:12:26;;;;;;;3.60;1.63;;;;;;;14.38;53.91;101231.47;5014851;28;20037;-69
2022/10/02 07:15:10;;;;;;;4.95;1.65;;;;;;;14.40;53.59;101228.56;5013616;28;20046;-70
2022/10/02 07:17:52;;;;;;;4.45;1.70;;;;;;;14.42;53.46;101232.06;5015039;28;20037;-69
2022/10/02 07:20:31;;;;;;;5.63;1.52;;;;;;;14.46;53.19;101221.59;5027635;28;20041;-70
2022/10/02 07:23:13;;;;;;;5.40;1.42;;;;;;;14.46;53.06;101232.59;5028444;28;20069;-70
2022/10/02 07:25:57;;;;;;;3.78;1.40;;;;;;;14.44;53.97;101232.75;5024624;28;20046;-70
2022/10/02 07:28:33;;;;;;;6.60;2.10;;;;;;;14.48;53.85;101241.63;5020824;28;20055;-69
2022/10/02 07:31:10;;;;;;;6.70;1.60;;;;;;;14.50;53.66;101239.59;5014771;28;20041;-70
2022/10/02 07:33:52;;;;;;;6.05;1.77;;;;;;;14.54;53.25;101249.28;5025817;28;20074;-69
2022/10/02 07:36:30;;;;;;;4.75;1.80;;;;;;;14.53;53.36;101244.78;5016374;28;20062;-70
2022/10/02 07:39:08;;;;;;;5.10;1.83;;;;;;;14.57;53.08;101254.50;5042675;28;20049;-70
2022/10/02 07:41:59;;;;;;;5.93;2.25;;;;;;;14.57;53.34;101243.47;5018451;28;20057;-70
2022/10/02 07:44:43;;;;;;;4.25;1.95;;;;;;;14.61;53.33;101255.91;5017527;28;20050;-70
2022/10/02 07:47:22;;;;;;;5.18;1.70;;;;;;;14.61;53.47;101244.88;5019501;28;20116;-70
2022/10/02 07:49:56;;;;;;;4.47;1.88;;;;;;;14.61;52.96;101251.28;5026428;23;20054;-72
2022/10/02 07:52:36;;;;;;;6.50;2.13;;;;;;;14.64;52.80;101262.00;5006878;28;20046;-72
2022/10/02 07:55:15;;;;;;;4.95;2.03;;;;;;;14.63;53.26;101263.00;5010015;28;20038;-72
2022/10/02 07:57:52;;;;;;;5.63;2.17;;;;;;;14.63;52.60;101268.53;5014609;28;20046;-72
2022/10/02 08:00:24;;;;;;;4.18;1.77;;;;;;;14.63;53.20;101273.16;4995495;28;20414;-72
2022/10/02 08:02:58;;;;;;;4.80;2.05;;;;;;;14.64;53.23;101277.66;4999648;28;20056;-72
2022/10/02 08:05:30;;;;;;;4.78;2.15;;;;;;;14.64;53.26;101277.66;5024156;28;20053;-71
2022/10/02 08:08:02;;;;;;;5.53;2.25;;;;;;;14.65;53.08;101274.75;5009930;28;20099;-71
2022/10/02 08:10:36;;;;;;;4.22;1.90;;;;;;;14.64;53.18;101277.66;5006703;28;20052;-72
2022/10/02 08:13:10;;;;;;;6.53;2.35;;;;;;;14.66;52.93;101275.63;5009632;28;20060;-71
2022/10/02 08:15:42;;;;;;;6.35;2.30;;;;;;;14.67;53.13;101280.13;5014997;28;20038;-71
2022/10/02 08:18:17;;;;;;;4.40;2.13;;;;;;;14.69;52.93;101289.94;5009119;28;20046;-71
2022/10/02 08:21:02;;;;;;;4.50;1.90;;;;;;;14.68;52.91;101282.69;5007413;28;20054;-72
2022/10/02 08:23:37;;;;;;;5.97;2.00;;;;;;;14.72;53.20;101280.53;5007624;28;20046;-71
2022/10/02 08:26:11;;;;;;;4.22;1.80;;;;;;;14.73;52.91;101288.66;5015052;28;20503;-72
2022/10/02 08:28:44;;;;;;;5.38;1.83;;;;;;;14.75;53.17;101291.25;5017169;28;20362;-72
2022/10/02 08:31:14;;;;;;;4.18;2.03;;;;;;;14.75;52.95;101294.00;5007007;28;20050;-72
2022/10/02 08:33:44;;;;;;;4.40;1.85;;;;;;;14.77;53.35;101294.69;4992357;28;20517;-71
2022/10/02 08:36:35;;;;;;;5.65;2.15;;;;;;;14.82;53.76;101297.03;5007021;28;20109;-72
2022/10/02 08:39:19;;;;;;;6.68;1.92;;;;;;;14.83;53.31;101294.13;5007419;28;20064;-72
2022/10/02 08:42:17;;;;;;;6.38;1.90;;;;;;;14.85;52.98;101288.47;5016772;28;20061;-72
2022/10/02 08:45:38;;;;;;;5.45;1.77;;;;;;;14.85;53.38;101289.31;5003908;28;20173;-72
2022/10/02 08:48:43;;;;;;;4.90;1.75;;;;;;;14.84;53.12;101295.84;4906281;29;20160;-72
2022/10/02 08:51:46;;;;;;;4.63;2.25;;;;;;;14.88;52.88;101308.31;4933897;29;20050;-72
2022/10/02 08:54:51;;;;;;;4.82;1.83;;;;;;;14.89;52.68;101311.94;4987973;28;20545;-72
2022/10/02 08:57:37;;;;;;;4.13;1.80;;;;;;;14.94;52.33;101309.56;5007082;28;20140;-72
2022/10/02 09:00:19;;;;;;;3.80;1.80;;;;;;;14.95;52.88;101316.81;5005556;28;20052;-72
2022/10/02 09:03:44;;;;;;;5.43;1.70;;;;;;;14.91;52.50;101315.41;5007658;28;20427;-72
2022/10/02 09:07:06;;;;;;;3.58;1.52;;;;;;;14.92;52.41;101318.00;4979992;28;20046;-72
2022/10/02 09:10:25;;;;;;;4.82;1.95;;;;;;;14.89;52.48;101318.31;5007277;28;20053;-72
2022/10/02 09:13:14;;;;;;;3.67;1.67;;;;;;;14.94;52.92;101323.34;4986933;28;20428;-72
2022/10/02 09:15:47;;;;;;;3.95;1.95;;;;;;;14.94;52.25;101329.72;5006605;28;20046;-72
2022/10/02 09:18:18;;;;;;;2.42;1.35;;;;;;;14.95;52.33;101333.34;5011431;28;20052;-73
2022/10/02 09:21:27;;;;;;;5.35;2.00;;;;;;;14.88;52.35;101332.22;4992077;28;20061;-73
2022/10/02 09:24:34;;;;;;;5.30;2.03;;;;;;;14.92;52.76;101328.16;4953647;28;20094;-72
2022/10/02 09:27:32;;;;;;;5.95;1.98;;;;;;;14.93;52.53;101327.16;4922404;29;20831;-72
2022/10/02 09:30:26;;;;;;;2.30;1.33;;;;;;;14.94;52.41;101318.72;5008760;28;20054;-72
2022/10/02 09:33:28;;;;;;;4.55;2.00;;;;;;;14.94;52.47;101328.84;5005660;28;20045;-72
2022/10/02 09:36:48;;;;;;;3.17;1.42;;;;;;;14.92;52.42;101320.78;5010110;28;20048;-72
2022/10/02 09:39:54;;;;;;;3.72;1.63;;;;;;;14.90;52.92;101328.31;4999497;28;20379;-72
2022/10/02 09:42:59;;;;;;;4.30;1.55;;;;;;;14.94;53.13;101332.50;4982832;28;20057;-72
2022/10/02 09:46:14;;;;;;;3.80;1.45;;;;;;;14.96;52.73;101335.09;5009506;28;20853;-72
2022/10/02 09:49:15;;;;;;;3.17;1.17;;;;;;;14.99;52.87;101330.16;5005513;28;20569;-72
2022/10/02 09:52:22;;;;;;;5.28;1.70;;;;;;;15.04;52.96;101330.56;5007484;28;20056;-72
2022/10/02 09:55:34;;;;;;;4.15;1.67;;;;;;;15.06;52.90;101333.19;5013974;28;20415;-72
2022/10/02 09:58:36;;;;;;;4.03;1.60;;;;;;;15.10;52.95;101329.94;4992193;28;20508;-72
2022/10/02 10:01:29;;;;;;;3.78;1.50;;;;;;;15.18;52.67;101336.63;5009372;28;20046;-72
2022/10/02 10:04:37;;;;;;;4.13;1.50;;;;;;;15.21;52.51;101325.25;5017590;28;20042;-72
2022/10/02 10:07:57;;;;;;;6.15;1.58;;;;;;;15.26;52.71;101339.47;5015058;28;20418;-72
2022/10/02 10:10:49;;;;;;;2.10;1.20;;;;;;;15.30;52.75;101335.38;4974797;28;20384;-72
2022/10/02 10:14:08;;;;;;;3.40;1.85;;;;;;;15.28;52.27;101342.91;5002489;28;20048;-72
2022/10/02 10:17:21;;;;;;;3.50;1.23;;;;;;;15.37;52.30;101342.91;4948617;28;20119;-71
2022/10/02 10:20:23;;;;;;;4.27;1.77;;;;;;;15.40;51.61;101350.00;4938237;29;20520;-72
2022/10/02 10:23:06;;;;;;;4.20;1.55;;;;;;;15.45;51.83;101356.78;5009834;28;20295;-72
2022/10/02 10:26:14;;;;;;;3.65;1.95;;;;;;;15.45;51.40;101364.19;5024436;28;20057;-72
2022/10/02 10:29:15;;;;;;;4.30;1.23;;;;;;;15.47;51.46;101357.50;5005513;28;20149;-72
2022/10/02 10:32:26;;;;;;;2.92;1.05;;;;;;;15.44;51.83;101359.69;5007269;28;20049;-72
2022/10/02 10:35:36;;;;;;;3.00;1.30;;;;;;;15.45;52.09;101364.19;5007946;28;20141;-72
2022/10/02 10:38:31;;;;;;;3.83;1.50;;;;;;;15.55;52.00;101358.63;4960448;28;20058;-72
2022/10/02 10:41:49;;;;;;;4.97;1.55;;;;;;;15.55;52.24;101362.25;4999506;28;20125;-72
2022/10/02 10:44:39;;;;;;;3.78;1.40;;;;;;;15.63;52.33;101370.63;5006672;28;20770;-72
2022/10/02 10:47:27;;;;;;;3.00;1.30;;;;;;;15.68;51.61;101370.16;5005708;28;20053;-72
2022/10/02 10:50:18;;;;;;;4.30;1.63;;;;;;;15.74;51.90;101377.84;5007099;28;20525;-72
2022/10/02 10:53:10;;;;;;;3.58;1.48;;;;;;;15.79;51.38;101376.34;5013072;28;20076;-73
2022/10/02 10:55:58;;;;;;;9.73;2.60;;;;;;;15.84;51.56;101373.09;4998089;28;20058;-72
2022/10/02 10:58:43;;;;;;;5.30;2.30;;;;;;;15.91;51.46;101379.75;5009712;28;20034;-72
2022/10/02 11:01:17;;;;;;;4.10;1.65;;;;;;;15.97;51.66;101378.25;5007939;28;20057;-72
2022/10/02 11:04:18;;;;;;;5.50;2.15;;;;;;;16.04;51.84;101390.38;5001799;28;20038;-72
2022/10/02 11:07:07;;;;;;;4.80;1.73;;;;;;;16.12;51.73;101396.00;5006732;28;20537;-72
2022/10/02 11:09:56;;;;;;;4.85;1.85;;;;;;;16.23;50.99;101391.16;5008509;28;20545;-74
2022/10/02 11:12:59;;;;;;;3.35;1.50;;;;;;;16.32;50.84;101392.09;4990068;28;20356;-73
2022/10/02 11:16:06;;;;;;;5.38;2.08;;;;;;;16.44;50.73;101401.84;4992465;28;20066;-73
2022/10/02 11:19:00;;;;;;;3.13;1.80;;;;;;;16.52;49.93;101392.75;4990214;28;20585;-72
2022/10/02 11:21:55;;;;;;;4.72;1.83;;;;;;;16.61;50.03;101394.56;5006865;28;20466;-72
2022/10/02 11:25:00;;;;;;;4.55;2.10;;;;;;;16.69;49.91;101393.75;4991413;28;20140;-72
2022/10/02 11:28:05;;;;;;;3.63;1.90;;;;;;;16.78;49.58;101392.78;5008492;28;20141;-72
2022/10/02 11:30:47;;;;;;;5.15;1.80;;;;;;;16.86;49.26;101396.47;5022296;28;20499;-72
2022/10/02 11:33:21;;;;;;;;;;;;;;;16.63;49.98;101411.84;5008998;28;20505;-72
2022/10/02 11:36:07;;;;;;;3.00;1.60;;;;;;;16.98;48.67;101405.41;4997962;28;19925;-72
2022/10/02 11:39:06;;;;;;;4.07;1.77;;;;;;;17.00;48.19;101412.50;5008978;28;20136;-72
2022/10/02 11:42:26;;;;;;;4.40;1.70;;;;;;;17.04;48.04;101410.28;4945596;28;20089;-72
2022/10/02 11:45:19;;;;;;;5.07;1.83;;;;;;;17.12;47.97;101418.63;4923548;29;20122;-71
2022/10/02 11:48:13;;;;;;;3.75;1.73;;;;;;;17.19;47.47;101416.06;4928059;29;20052;-71
2022/10/02 11:51:01;;;;;;;4.90;1.67;;;;;;;17.21;47.51;101408.47;4957435;28;20056;-72
2022/10/02 11:53:52;;;;;;;3.67;1.77;;;;;;;17.24;47.39;101411.75;4994721;28;20302;-72
2022/10/02 11:56:35;;;;;;;5.57;1.98;;;;;;;17.28;47.00;101409.53;5007677;28;20144;-72
2022/10/02 11:59:27;;;;;;;3.90;1.90;;;;;;;17.29;46.76;101405.75;5008602;28;20523;-72
2022/10/02 12:02:01;;;;;;;3.85;1.58;;;;;;;17.33;47.64;101416.31;5007165;28;20046;-72
2022/10/02 12:04:40;;;;;;;4.75;1.80;;;;;;;17.39;47.25;101418.44;5007793;28;20054;-72
2022/10/02 12:07:21;;;;;;;3.63;1.80;;;;;;;17.45;46.64;101422.44;5007109;28;20050;-73
2022/10/02 12:10:06;;;;;;;4.05;1.63;;;;;;;17.50;46.87;101419.16;4994997;28;20042;-73
2022/10/02 12:12:50;;;;;;;7.57;2.10;;;;;;;17.55;46.21;101425.94;5003196;28;20068;-72
2022/10/02 12:15:30;;;;;;;3.58;1.52;;;;;;;17.60;45.90;101422.66;5006427;28;20478;-72
2022/10/02 12:18:14;;;;;;;4.00;1.55;;;;;;;17.65;45.66;101421.13;5001673;28;20125;-72
2022/10/02 12:27:03;;;;;;;6.10;1.58;;;;;;;17.72;44.96;101421.34;5007135;28;20046;-72
2022/10/02 12:29:42;;;;;;;4.53;1.70;;;;;;;17.74;44.18;101424.81;4999121;28;20056;-76
2022/10/02 12:32:23;;;;;;;5.07;1.58;;;;;;;17.74;43.93;101420.16;5005706;28;20038;-72
2022/10/02 12:35:02;;;;;;;5.25;1.80;;;;;;;17.77;44.26;101407.88;5008245;28;20046;-72
2022/10/02 12:37:36;;;;;;;3.38;1.70;;;;;;;17.77;44.62;101413.41;5007215;28;20060;-72
2022/10/02 12:40:17;;;;;;;5.45;1.80;;;;;;;17.80;44.28;101415.88;5006968;28;20049;-72
2022/10/02 12:43:16;;;;;;;3.15;1.73;;;;;;;17.80;43.73;101406.69;5002869;28;20058;-72
2022/10/02 12:46:19;;;;;;;5.00;1.90;;;;;;;17.84;43.98;101400.63;4995753;28;20042;-72